createdAt,value
2022-12-25T00:01:22.689Z,187.27
2022-12-25T00:03:51.491Z,182.05
2022-12-25T00:06:19.864Z,191.00
2022-12-25T00:08:53.107Z,195.40
2022-12-25T00:11:24.465Z,188.13
2022-12-25T00:13:53.277Z,184.45
2022-12-25T00:16:34.199Z,182.75
2022-12-25T00:19:02.786Z,189.63
2022-12-25T00:21:33.612Z,176.13
2022-12-25T00:24:02.845Z,184.77
2022-12-25T00:26:36.993Z,192.02
2022-12-25T00:29:13.788Z,185.23
2022-12-25T00:31:40.874Z,184.32
2022-12-25T00:34:19.861Z,193.88
2022-12-25T00:36:53.736Z,199.02
2022-12-25T00:39:24.545Z,190.15
2022-12-25T00:42:10.132Z,192.88
2022-12-25T00:44:37.312Z,149.60
2022-12-25T00:47:07.807Z,142.38
2022-12-25T00:49:38.635Z,162.98
2022-12-25T00:52:07.505Z,169.27
2022-12-25T00:54:36.388Z,169.50
2022-12-25T00:57:04.477Z,162.43
2022-12-25T00:59:36.163Z,136.40
2022-12-25T01:02:22.596Z,118.88
2022-12-25T01:04:57.628Z,98.05
2022-12-25T01:07:28.340Z,93.82
2022-12-25T01:10:13.773Z,89.82
2022-12-25T01:12:43.056Z,91.18
2022-12-25T01:15:11.320Z,95.75
2022-12-25T01:17:38.254Z,99.20
2022-12-25T01:20:08.615Z,125.38
2022-12-25T01:22:35.572Z,133.88
2022-12-25T01:25:02.465Z,139.52
2022-12-25T01:27:30.377Z,133.38
2022-12-25T01:32:40.541Z,140.23
2022-12-25T01:35:08.329Z,98.35
2022-12-25T01:37:35.330Z,93.72
2022-12-25T01:40:02.321Z,94.45
2022-12-25T01:42:29.542Z,89.68
2022-12-25T01:45:38.173Z,94.07
2022-12-25T01:48:09.122Z,82.95
2022-12-25T01:51:00.888Z,104.95
2022-12-25T01:53:30.645Z,109.40
2022-12-25T01:56:04.819Z,111.38
2022-12-25T01:58:35.109Z,111.72
2022-12-25T02:01:03.083Z,97.53
2022-12-25T02:03:30.071Z,101.63
2022-12-25T02:06:01.067Z,93.55
2022-12-25T02:08:29.661Z,115.45
2022-12-25T02:10:56.571Z,92.68
2022-12-25T02:13:23.385Z,96.25
2022-12-25T02:16:17.356Z,83.60
2022-12-25T02:18:51.082Z,89.10
2022-12-25T02:21:39.155Z,97.43
2022-12-25T02:24:24.222Z,103.47
2022-12-25T02:27:00.844Z,109.88
2022-12-25T02:29:33.898Z,117.15
2022-12-25T02:32:38.379Z,119.28
2022-12-25T02:35:24.372Z,86.75
2022-12-25T02:38:16.305Z,93.53
2022-12-25T02:40:50.453Z,123.10
2022-12-25T02:43:57.805Z,108.20
2022-12-25T02:46:45.063Z,93.30
2022-12-25T02:49:37.911Z,135.52
2022-12-25T02:55:28.495Z,117.57
2022-12-25T02:58:20.504Z,105.78
2022-12-25T03:01:11.121Z,149.40
2022-12-25T03:04:01.971Z,153.70
2022-12-25T03:06:44.294Z,172.18
2022-12-25T03:09:36.468Z,175.13
2022-12-25T03:12:13.797Z,154.73
2022-12-25T03:14:59.764Z,178.10
2022-12-25T03:17:27.108Z,191.43
2022-12-25T03:20:13.053Z,188.70
2022-12-25T03:23:01.863Z,220.77
2022-12-25T03:25:48.074Z,232.40
2022-12-25T03:28:15.453Z,254.18
2022-12-25T03:31:11.793Z,285.60
2022-12-25T03:34:12.706Z,240.70
2022-12-25T03:37:18.208Z,287.10
2022-12-25T03:40:52.534Z,287.70
2022-12-25T03:43:49.805Z,270.85
2022-12-25T03:46:38.190Z,269.60
2022-12-25T03:49:47.358Z,271.23
2022-12-25T03:52:37.200Z,148.68
2022-12-25T03:55:27.891Z,201.90
2022-12-25T03:58:13.678Z,201.95
2022-12-25T04:01:02.613Z,203.57
2022-12-25T04:03:49.144Z,209.82
2022-12-25T04:06:35.732Z,230.05
2022-12-25T04:09:22.656Z,224.75
2022-12-25T04:12:08.445Z,193.60
2022-12-25T04:14:58.299Z,224.40
2022-12-25T04:17:44.108Z,229.48
2022-12-25T04:20:29.957Z,231.00
2022-12-25T04:23:15.705Z,237.05
2022-12-25T04:26:03.661Z,194.65
2022-12-25T04:28:54.199Z,205.73
2022-12-25T04:31:39.832Z,187.73
2022-12-25T04:34:25.730Z,202.20
2022-12-25T04:36:52.669Z,205.68
2022-12-25T04:39:19.826Z,142.82
2022-12-25T04:41:47.130Z,181.57
2022-12-25T04:44:14.218Z,184.38
2022-12-25T04:46:41.391Z,189.02
2022-12-25T04:49:08.495Z,186.40
2022-12-25T04:51:38.856Z,185.75
2022-12-25T04:54:07.534Z,188.10
2022-12-25T04:56:35.657Z,196.90
2022-12-25T04:59:06.741Z,198.27
2022-12-25T05:01:33.993Z,190.65
2022-12-25T05:04:00.982Z,191.20
2022-12-25T05:06:29.618Z,193.35
2022-12-25T05:09:00.314Z,183.35
2022-12-25T05:11:27.896Z,191.10
2022-12-25T05:13:54.889Z,194.38
2022-12-25T05:16:22.170Z,216.50
2022-12-25T05:18:51.428Z,201.07
2022-12-25T05:21:19.000Z,219.13
2022-12-25T05:23:48.893Z,226.95
2022-12-25T05:26:18.075Z,242.70
2022-12-25T05:28:45.113Z,234.88
2022-12-25T05:31:12.076Z,226.98
2022-12-25T05:33:39.105Z,255.43
2022-12-25T05:36:07.977Z,221.38
2022-12-25T05:38:35.145Z,247.18
2022-12-25T05:41:02.182Z,174.60
2022-12-25T05:43:29.809Z,219.27
2022-12-25T05:45:56.668Z,148.93
2022-12-25T05:48:23.679Z,204.00
2022-12-25T05:50:51.886Z,180.02
2022-12-25T05:53:18.786Z,213.48
2022-12-25T05:55:47.127Z,192.65
2022-12-25T05:58:13.961Z,212.68
2022-12-25T06:00:43.783Z,211.30
2022-12-25T06:03:10.782Z,195.02
2022-12-25T06:05:40.744Z,151.43
2022-12-25T06:08:07.632Z,201.30
2022-12-25T06:10:34.399Z,211.07
2022-12-25T06:13:01.275Z,179.77
2022-12-25T06:15:28.116Z,192.23
2022-12-25T06:17:58.009Z,198.98
2022-12-25T06:20:24.913Z,206.65
2022-12-25T06:22:54.609Z,195.35
2022-12-25T06:25:21.496Z,193.63
2022-12-25T06:27:48.274Z,200.20
2022-12-25T06:30:15.303Z,195.95
2022-12-25T06:32:42.215Z,202.52
2022-12-25T06:35:09.204Z,193.30
2022-12-25T06:37:37.346Z,195.38
2022-12-25T06:40:04.637Z,188.73
2022-12-25T06:42:31.777Z,190.20
2022-12-25T06:44:58.553Z,185.95
2022-12-25T06:47:25.346Z,182.05
2022-12-25T06:49:52.263Z,191.70
2022-12-25T06:52:19.198Z,192.57
2022-12-25T06:54:47.489Z,172.10
2022-12-25T06:57:14.484Z,170.82
2022-12-25T06:59:41.347Z,169.07
2022-12-25T07:02:17.525Z,154.77
2022-12-25T07:04:45.033Z,155.18
2022-12-25T07:07:12.097Z,161.57
2022-12-25T07:09:39.459Z,161.65
2022-12-25T07:12:08.076Z,161.18
2022-12-25T07:14:35.187Z,174.55
2022-12-25T07:17:02.260Z,175.45
2022-12-25T07:19:29.354Z,167.20
2022-12-25T07:21:56.872Z,165.23
2022-12-25T07:24:26.736Z,159.25
2022-12-25T07:26:54.111Z,167.02
2022-12-25T07:29:24.310Z,174.07
2022-12-25T07:31:53.444Z,168.50
2022-12-25T07:34:30.650Z,168.18
2022-12-25T07:37:00.693Z,165.52
2022-12-25T07:39:30.898Z,158.95
2022-12-25T07:42:02.166Z,152.32
2022-12-25T07:44:31.153Z,156.65
2022-12-25T07:46:59.616Z,156.07
2022-12-25T07:49:26.509Z,166.02
2022-12-25T07:51:53.494Z,142.00
2022-12-25T07:54:21.047Z,95.72
2022-12-25T07:56:52.179Z,92.60
2022-12-25T07:59:20.115Z,89.35
2022-12-25T08:01:47.179Z,119.70
2022-12-25T08:04:14.167Z,111.63
2022-12-25T08:06:41.124Z,134.13
2022-12-25T08:09:15.174Z,135.95
2022-12-25T08:11:49.343Z,86.15
2022-12-25T08:14:16.349Z,84.20
2022-12-25T08:16:47.250Z,91.43
2022-12-25T08:19:15.497Z,117.75
2022-12-25T08:21:42.511Z,87.47
2022-12-25T08:24:11.136Z,78.60
2022-12-25T08:26:39.586Z,81.55
2022-12-25T08:29:06.432Z,102.32
2022-12-25T08:31:38.294Z,118.32
2022-12-25T08:34:09.694Z,118.72
2022-12-25T08:36:37.417Z,105.25
2022-12-25T08:39:08.199Z,112.65
2022-12-25T08:41:36.836Z,107.82
2022-12-25T08:44:05.014Z,107.65
2022-12-25T08:46:32.386Z,90.45
2022-12-25T08:49:00.151Z,103.25
2022-12-25T08:51:33.524Z,91.75
2022-12-25T08:54:01.058Z,102.82
2022-12-25T08:56:30.043Z,100.78
2022-12-25T08:58:59.340Z,99.78
2022-12-25T09:01:27.974Z,76.95
2022-12-25T09:03:55.119Z,83.60
2022-12-25T09:06:22.526Z,75.50
2022-12-25T09:08:50.060Z,74.55
2022-12-25T09:11:22.500Z,74.88
2022-12-25T09:13:49.499Z,77.20
2022-12-25T09:16:21.078Z,77.03
2022-12-25T09:18:48.672Z,79.95
2022-12-25T09:21:16.804Z,75.28
2022-12-25T09:23:44.303Z,76.13
2022-12-25T09:26:14.264Z,77.32
2022-12-25T09:28:45.339Z,124.80
2022-12-25T09:31:15.588Z,128.23
2022-12-25T09:33:44.530Z,128.88
2022-12-25T09:36:12.964Z,84.57
2022-12-25T09:38:42.933Z,90.32
2022-12-25T09:41:50.091Z,91.68
2022-12-25T09:44:26.145Z,85.93
2022-12-25T09:47:24.425Z,116.18
2022-12-25T09:50:11.630Z,92.43
2022-12-25T09:53:01.333Z,83.53
2022-12-25T09:55:31.926Z,107.88
2022-12-25T09:58:02.322Z,81.95
2022-12-25T10:00:38.923Z,87.95
2022-12-25T10:03:31.909Z,101.53
2022-12-25T10:06:05.773Z,100.57
2022-12-25T10:09:11.137Z,80.75
2022-12-25T10:12:00.439Z,84.10
2022-12-25T10:14:32.230Z,93.03
2022-12-25T10:17:12.699Z,100.38
2022-12-25T10:19:52.079Z,79.45
2022-12-25T10:22:47.706Z,91.35
2022-12-25T10:25:24.970Z,80.65
2022-12-25T10:28:20.098Z,83.05
2022-12-25T10:30:51.012Z,87.75
2022-12-25T10:33:18.000Z,93.40
2022-12-25T10:35:45.641Z,84.65
2022-12-25T10:38:16.188Z,91.38
2022-12-25T10:41:14.371Z,84.38
2022-12-25T10:43:49.705Z,84.72
2022-12-25T10:46:17.798Z,88.38
2022-12-25T10:49:03.763Z,73.95
2022-12-25T10:51:39.333Z,70.47
2022-12-25T10:54:28.268Z,83.93
2022-12-25T10:57:05.297Z,86.43
2022-12-25T10:59:42.329Z,75.25
2022-12-25T11:02:35.272Z,86.82
2022-12-25T11:05:08.586Z,71.30
2022-12-25T11:07:46.973Z,81.22
2022-12-25T11:10:25.305Z,92.85
2022-12-25T11:12:53.781Z,89.03
2022-12-25T11:15:32.887Z,90.22
2022-12-25T11:18:02.572Z,78.15
2022-12-25T11:20:30.412Z,91.40
2022-12-25T11:23:00.264Z,90.00
2022-12-25T11:25:28.456Z,82.53
2022-12-25T11:28:14.323Z,84.90
2022-12-25T11:30:41.630Z,78.28
2022-12-25T11:33:14.300Z,74.90
2022-12-25T11:35:51.178Z,79.30
2022-12-25T11:38:18.655Z,74.50
2022-12-25T11:40:57.799Z,79.30
2022-12-25T11:43:34.359Z,82.90
2022-12-25T11:46:11.178Z,63.63
2022-12-25T11:48:44.998Z,66.05
2022-12-25T11:51:15.388Z,81.55
2022-12-25T11:53:54.474Z,76.18
2022-12-25T11:56:28.399Z,78.72
2022-12-25T11:59:00.897Z,70.65
2022-12-25T12:04:01.196Z,76.70
2022-12-25T12:07:03.578Z,81.88
2022-12-25T12:09:42.596Z,58.63
2022-12-25T12:12:23.838Z,58.72
2022-12-25T12:15:25.033Z,76.45
2022-12-25T12:17:53.529Z,57.17
2022-12-25T12:20:34.445Z,75.07
2022-12-25T12:23:15.771Z,55.85
2022-12-25T12:25:45.224Z,55.13
2022-12-25T12:28:21.570Z,73.10
2022-12-25T12:31:05.353Z,74.03
2022-12-25T12:33:38.173Z,79.90
2022-12-25T12:36:06.404Z,75.25
2022-12-25T12:38:35.480Z,75.88
2022-12-25T12:41:05.967Z,77.45
2022-12-25T12:43:41.319Z,73.22
2022-12-25T12:46:27.689Z,73.20
2022-12-25T12:49:20.315Z,58.65
2022-12-25T12:51:47.492Z,60.58
2022-12-25T12:54:21.102Z,72.82
2022-12-25T12:57:23.615Z,56.08
2022-12-25T12:59:50.496Z,70.65
2022-12-25T13:02:33.089Z,52.67
2022-12-25T13:07:52.051Z,76.00
2022-12-25T13:10:30.345Z,55.65
2022-12-25T13:13:01.946Z,69.18
2022-12-25T13:15:33.164Z,68.00
2022-12-25T13:18:07.570Z,51.13
2022-12-25T13:20:54.326Z,48.97
2022-12-25T13:23:30.640Z,49.30
2022-12-25T13:26:01.472Z,61.40
2022-12-25T13:28:33.875Z,61.97
2022-12-25T13:31:18.601Z,64.07
2022-12-25T13:34:21.055Z,49.20
2022-12-25T13:36:50.628Z,48.65
2022-12-25T13:39:25.695Z,52.08
2022-12-25T13:42:15.476Z,58.50
2022-12-25T13:47:36.028Z,48.30
2022-12-25T13:50:26.281Z,47.35
2022-12-25T13:52:56.529Z,47.28
2022-12-25T13:55:30.782Z,50.17
2022-12-25T13:58:05.029Z,65.25
2022-12-25T14:00:39.722Z,50.55
2022-12-25T14:03:15.307Z,45.95
2022-12-25T14:05:43.710Z,46.00
2022-12-25T14:08:16.342Z,69.97
2022-12-25T14:13:14.974Z,71.57
2022-12-25T14:15:43.315Z,73.50
2022-12-25T14:18:17.479Z,71.82
2022-12-25T14:21:05.299Z,48.53
2022-12-25T14:23:46.385Z,48.50
2022-12-25T14:26:18.003Z,51.40
2022-12-25T14:28:58.156Z,49.28
2022-12-25T14:31:25.536Z,50.20
2022-12-25T14:33:54.210Z,84.80
2022-12-25T14:36:21.664Z,48.55
2022-12-25T14:39:03.930Z,46.97
2022-12-25T14:41:42.096Z,47.53
2022-12-25T14:44:37.205Z,61.75
2022-12-25T14:47:06.821Z,54.38
2022-12-25T14:49:33.865Z,52.65
2022-12-25T14:52:10.273Z,77.53
2022-12-25T14:54:37.705Z,67.68
2022-12-25T14:57:07.122Z,54.10
2022-12-25T14:59:34.201Z,51.83
2022-12-25T15:02:04.435Z,48.95
2022-12-25T15:04:32.682Z,51.92
2022-12-25T15:07:07.493Z,48.33
2022-12-25T15:09:36.264Z,49.40
2022-12-25T15:12:03.473Z,70.55
2022-12-25T15:14:31.881Z,66.50
2022-12-25T15:17:01.596Z,53.30
2022-12-25T15:19:37.740Z,67.72
2022-12-25T15:22:05.691Z,55.67
2022-12-25T15:24:35.614Z,52.20
2022-12-25T15:27:02.595Z,68.28
2022-12-25T15:30:07.970Z,48.42
2022-12-25T15:32:19.587Z,64.57
2022-12-25T15:34:49.940Z,71.25
2022-12-25T15:37:18.588Z,52.08
2022-12-25T15:39:46.203Z,73.82
2022-12-25T15:42:21.530Z,51.75
2022-12-25T15:44:48.530Z,49.05
2022-12-25T15:47:17.187Z,48.15
2022-12-25T15:49:44.126Z,51.97
2022-12-25T15:52:15.107Z,50.22
2022-12-25T15:54:42.064Z,62.88
2022-12-25T15:57:21.411Z,55.88
2022-12-25T15:59:49.434Z,62.15
2022-12-25T16:02:20.771Z,72.40
2022-12-25T16:04:51.319Z,74.27
2022-12-25T16:07:20.767Z,69.90
2022-12-25T16:09:48.360Z,51.45
2022-12-25T16:12:15.809Z,51.53
2022-12-25T16:14:42.978Z,74.03
2022-12-25T16:17:15.807Z,75.82
2022-12-25T16:19:45.042Z,78.25
2022-12-25T16:22:25.834Z,84.05
2022-12-25T16:24:55.823Z,76.00
2022-12-25T16:27:23.242Z,68.10
2022-12-25T16:29:52.341Z,53.97
2022-12-25T16:32:20.473Z,50.95
2022-12-25T16:34:50.005Z,51.72
2022-12-25T16:37:23.302Z,53.55
2022-12-25T16:39:53.069Z,52.65
2022-12-25T16:42:20.099Z,74.22
2022-12-25T16:44:52.448Z,60.47
2022-12-25T16:47:19.414Z,54.70
2022-12-25T16:49:48.109Z,79.20
2022-12-25T16:52:15.322Z,73.00
2022-12-25T16:54:44.074Z,55.42
2022-12-25T16:57:11.058Z,52.88
2022-12-25T16:59:38.321Z,76.07
2022-12-25T17:02:05.275Z,52.83
2022-12-25T17:04:34.048Z,56.88
2022-12-25T17:07:01.408Z,69.88
2022-12-25T17:09:28.662Z,69.70
2022-12-25T17:11:58.020Z,65.55
2022-12-25T17:14:25.940Z,68.70
2022-12-25T17:16:53.426Z,57.83
2022-12-25T17:19:24.097Z,62.67
2022-12-25T17:21:54.046Z,64.95
2022-12-25T17:24:21.853Z,72.55
2022-12-25T17:26:50.930Z,61.58
2022-12-25T17:29:21.899Z,75.20
2022-12-25T17:31:49.980Z,74.70
2022-12-25T17:34:20.453Z,69.20
2022-12-25T17:36:47.984Z,56.20
2022-12-25T17:39:15.052Z,59.75
2022-12-25T17:41:42.120Z,74.85
2022-12-25T17:44:12.418Z,100.90
2022-12-25T17:46:39.719Z,84.20
2022-12-25T17:49:09.416Z,56.30
2022-12-25T17:51:36.430Z,79.43
2022-12-25T17:54:07.218Z,74.25
2022-12-25T17:56:35.617Z,54.28
2022-12-25T17:59:06.985Z,56.40
2022-12-25T18:01:35.477Z,65.18
2022-12-25T18:04:06.437Z,47.80
2022-12-25T18:06:35.707Z,50.40
2022-12-25T18:09:10.695Z,51.15
2022-12-25T18:11:41.542Z,46.90
2022-12-25T18:14:11.772Z,65.47
2022-12-25T18:16:40.912Z,67.03
2022-12-25T18:19:08.592Z,62.92
2022-12-25T18:21:35.716Z,69.88
2022-12-25T18:24:05.079Z,47.95
2022-12-25T18:26:34.525Z,76.68
2022-12-25T18:29:04.298Z,71.10
2022-12-25T18:31:32.722Z,78.53
2022-12-25T18:34:00.358Z,69.10
2022-12-25T18:36:29.586Z,73.78
2022-12-25T18:38:58.123Z,52.88
2022-12-25T18:41:28.963Z,74.63
2022-12-25T18:43:56.390Z,70.15
2022-12-25T18:46:26.481Z,76.28
2022-12-25T18:48:56.973Z,76.05
2022-12-25T18:51:24.447Z,69.82
2022-12-25T18:53:51.746Z,80.95
2022-12-25T18:56:24.258Z,58.60
2022-12-25T18:58:51.050Z,64.43
2022-12-25T19:01:23.352Z,70.53
2022-12-25T19:06:27.879Z,74.70
2022-12-25T19:08:56.144Z,76.55
2022-12-25T19:11:26.519Z,73.70
2022-12-25T19:13:53.445Z,61.30
2022-12-25T19:16:20.369Z,73.15
2022-12-25T19:18:47.230Z,76.40
2022-12-25T19:21:16.202Z,75.65
2022-12-25T19:23:44.683Z,75.15
2022-12-25T19:26:13.217Z,71.47
2022-12-25T19:28:40.829Z,58.22
2022-12-25T19:31:10.129Z,71.00
2022-12-25T19:33:39.401Z,69.63
2022-12-25T19:36:10.904Z,49.88
2022-12-25T19:38:39.228Z,72.77
2022-12-25T19:41:08.234Z,71.95
2022-12-25T19:43:42.903Z,68.82
2022-12-25T19:46:26.306Z,63.92
2022-12-25T19:48:53.933Z,61.58
2022-12-25T19:51:30.708Z,67.18
2022-12-25T19:53:59.908Z,66.10
2022-12-25T19:56:29.691Z,52.70
2022-12-25T19:58:58.732Z,56.58
2022-12-25T20:01:29.111Z,52.05
2022-12-25T20:03:59.196Z,48.03
2022-12-25T20:06:34.426Z,46.00
2022-12-25T20:09:09.277Z,47.38
2022-12-25T20:11:38.308Z,48.08
2022-12-25T20:14:07.671Z,44.92
2022-12-25T20:16:38.488Z,43.22
2022-12-25T20:19:07.122Z,44.90
2022-12-25T20:21:34.498Z,45.67
2022-12-25T20:24:02.729Z,42.60
2022-12-25T20:26:34.791Z,43.25
2022-12-25T20:29:04.717Z,43.35
2022-12-25T20:31:35.537Z,41.42
2022-12-25T20:34:27.107Z,41.78
2022-12-25T20:36:54.354Z,43.42
2022-12-25T20:39:24.655Z,44.83
2022-12-25T20:41:51.872Z,37.95
2022-12-25T20:44:20.042Z,39.63
2022-12-25T20:46:49.180Z,42.83
2022-12-25T20:49:16.120Z,40.67
2022-12-25T20:51:43.340Z,40.83
2022-12-25T20:54:11.336Z,46.45
2022-12-25T20:56:38.541Z,46.08
2022-12-25T20:59:08.767Z,45.95
2022-12-25T21:01:35.822Z,53.95
2022-12-25T21:04:03.351Z,53.20
2022-12-25T21:06:33.130Z,49.03
2022-12-25T21:09:00.485Z,51.58
2022-12-25T21:11:28.963Z,53.10
2022-12-25T21:13:56.118Z,54.67
2022-12-25T21:16:26.026Z,53.60
2022-12-25T21:18:54.893Z,50.53
2022-12-25T21:21:23.109Z,51.22
2022-12-25T21:23:57.397Z,49.25
2022-12-25T21:26:29.627Z,65.18
2022-12-25T21:29:00.716Z,69.55
2022-12-25T21:31:37.514Z,64.72
2022-12-25T21:34:05.815Z,74.00
2022-12-25T21:36:38.857Z,69.80
2022-12-25T21:39:09.281Z,79.78
2022-12-25T21:41:40.243Z,76.03
2022-12-25T21:44:09.271Z,87.80
2022-12-25T21:46:36.180Z,83.78
2022-12-25T21:49:04.290Z,81.45
2022-12-25T21:51:52.862Z,91.38
2022-12-25T21:54:24.817Z,83.65
2022-12-25T21:56:54.084Z,92.43
2022-12-25T21:59:22.230Z,92.93
2022-12-25T22:01:50.914Z,91.82
2022-12-25T22:04:22.065Z,88.95
2022-12-25T22:07:07.578Z,85.88
2022-12-25T22:09:34.861Z,95.22
2022-12-25T22:12:22.340Z,63.00
2022-12-25T22:14:55.464Z,102.38
2022-12-25T22:17:49.835Z,89.82
2022-12-25T22:20:40.794Z,93.78
2022-12-25T22:23:07.879Z,66.00
2022-12-25T22:25:37.857Z,68.22
2022-12-25T22:28:04.905Z,80.72
2022-12-25T22:30:32.098Z,90.68
2022-12-25T22:33:01.955Z,64.03
2022-12-25T22:35:29.023Z,85.93
2022-12-25T22:37:58.255Z,82.60
2022-12-25T22:40:25.215Z,75.40
2022-12-25T22:42:56.305Z,70.88
2022-12-25T22:45:33.221Z,73.65
2022-12-25T22:48:01.760Z,74.82
2022-12-25T22:50:29.432Z,70.38
2022-12-25T22:52:59.476Z,61.15
2022-12-25T22:55:30.402Z,72.78
2022-12-25T22:58:01.544Z,72.80
2022-12-25T23:00:28.689Z,78.30
2022-12-25T23:02:57.718Z,62.38
2022-12-25T23:05:25.359Z,72.45
2022-12-25T23:07:52.399Z,79.80
2022-12-25T23:10:19.356Z,66.32
2022-12-25T23:13:04.807Z,75.03
2022-12-25T23:15:32.795Z,67.05
2022-12-25T23:18:20.000Z,67.32
2022-12-25T23:21:07.026Z,68.78
2022-12-25T23:24:10.856Z,69.45
2022-12-25T23:26:38.133Z,62.78
2022-12-25T23:29:24.331Z,65.47
2022-12-25T23:31:53.860Z,61.33
2022-12-25T23:34:44.352Z,74.88
2022-12-25T23:37:14.634Z,66.55
2022-12-25T23:39:43.803Z,69.93
2022-12-25T23:42:20.536Z,68.72
2022-12-25T23:44:58.110Z,62.30
2022-12-25T23:47:28.038Z,63.92
2022-12-25T23:49:58.034Z,67.75
2022-12-25T23:52:49.451Z,53.30
2022-12-25T23:55:17.599Z,66.85
2022-12-25T23:58:00.494Z,57.05
